Time;durP1;ratioP1;P1;durP2;ratioP2;P2;SDS_P1;SDS_P2;PMS_P1;PMS_P2;Temp;Humidity;BMP_temperature;BMP_pressure;BME280_temperature;BME280_humidity;BME280_pressure;Samples;Min_cycle;Max_cycle;Signal;HPM_P1;HPM_P2
2021/12/30 00:00:22;;;;;;;2.50;1.50;;;;;;;19.17;47.54;99668.97;5132113;27;20050;-66
2021/12/30 00:02:47;;;;;;;2.50;1.65;;;;;;;19.12;47.65;99669.22;5131766;27;20047;-57
2021/12/30 00:05:14;;;;;;;2.63;1.52;;;;;;;19.15;47.61;99670.50;5131676;27;20051;-57
2021/12/30 00:07:40;;;;;;;2.33;1.58;;;;;;;19.14;47.64;99679.97;5131807;27;20136;-57
2021/12/30 00:10:06;;;;;;;2.00;1.40;;;;;;;19.11;47.67;99675.94;5131842;27;20126;-57
2021/12/30 00:12:32;;;;;;;2.13;1.40;;;;;;;19.11;47.73;99675.94;5131682;27;20091;-66
2021/12/30 00:14:58;;;;;;;1.80;1.20;;;;;;;19.13;47.70;99678.34;5131587;27;20510;-66
2021/12/30 00:17:23;;;;;;;2.08;1.30;;;;;;;19.12;47.71;99691.41;5131738;27;20130;-66
2021/12/30 00:19:48;;;;;;;2.40;1.35;;;;;;;19.09;47.76;99678.28;5131687;28;20047;-66
2021/12/30 00:22:14;;;;;;;2.42;1.40;;;;;;;19.10;47.73;99677.13;5131595;27;20066;-66
2021/12/30 00:24:39;;;;;;;1.90;1.30;;;;;;;19.12;47.77;99676.75;5131552;28;20042;-66
2021/12/30 00:27:05;;;;;;;2.42;1.35;;;;;;;19.10;47.75;99668.78;5131449;27;20059;-66
2021/12/30 00:29:30;;;;;;;2.08;1.40;;;;;;;19.10;47.81;99670.75;5131573;27;20046;-66
2021/12/30 00:31:56;;;;;;;2.03;1.20;;;;;;;19.04;47.96;99659.13;5131435;27;20055;-66
2021/12/30 00:34:21;;;;;;;1.60;1.17;;;;;;;19.05;47.93;99660.72;5131344;27;20039;-66
2021/12/30 00:36:46;;;;;;;2.00;1.30;;;;;;;19.03;48.01;99659.50;5131187;27;20043;-57
2021/12/30 00:39:12;;;;;;;2.30;1.27;;;;;;;19.02;48.02;99658.69;5131475;27;20088;-57
2021/12/30 00:41:37;;;;;;;1.92;1.25;;;;;;;19.04;48.03;99655.56;5131195;28;20063;-57
2021/12/30 00:44:03;;;;;;;1.73;1.10;;;;;;;19.04;47.93;99653.59;5131174;27;20061;-57
2021/12/30 00:46:29;;;;;;;1.92;1.20;;;;;;;19.05;47.86;99655.19;5131088;27;20126;-57
2021/12/30 00:48:56;;;;;;;2.38;1.40;;;;;;;19.06;47.92;99654.03;5130415;27;20039;-66
2021/12/30 00:51:21;;;;;;;1.50;1.00;;;;;;;19.02;47.99;99652.34;5130959;28;20046;-66
2021/12/30 00:53:47;;;;;;;2.33;1.08;;;;;;;19.00;48.12;99651.88;5130838;27;20039;-66
2021/12/30 00:56:12;;;;;;;1.50;1.00;;;;;;;19.02;48.02;99655.13;5131015;27;20084;-66
2021/12/30 00:58:37;;;;;;;2.15;1.30;;;;;;;19.02;48.02;99655.91;5131027;27;20065;-66
2021/12/30 01:01:04;;;;;;;1.23;0.90;;;;;;;19.05;47.90;99652.41;5131154;27;20035;-66
2021/12/30 01:03:31;;;;;;;1.70;1.00;;;;;;;19.04;47.99;99656.34;5131041;27;20082;-66
2021/12/30 01:05:59;;;;;;;1.70;1.10;;;;;;;19.03;48.04;99663.06;5130897;27;20046;-66
2021/12/30 01:08:25;;;;;;;2.00;1.10;;;;;;;19.01;48.05;99661.81;5130884;27;20043;-57
2021/12/30 01:10:50;;;;;;;2.25;1.23;;;;;;;19.01;48.09;99653.50;5130677;27;20046;-57
2021/12/30 01:13:22;;;;;;;1.58;0.90;;;;;;;19.03;48.07;99656.72;5130728;28;20043;-66
2021/12/30 01:15:57;;;;;;;1.70;1.10;;;;;;;18.96;48.07;99663.69;5130543;27;20518;-65
2021/12/30 01:20:53;;;;;;;1.88;1.05;;;;;;;19.00;48.13;99671.28;5130805;27;20078;-66
2021/12/30 01:23:20;;;;;;;1.85;1.20;;;;;;;18.99;48.14;99673.25;5130510;27;20123;-66
2021/12/30 01:25:45;;;;;;;1.80;1.08;;;;;;;19.00;48.13;99674.03;5130670;27;20068;-66
2021/12/30 01:28:11;;;;;;;1.63;0.98;;;;;;;18.98;48.27;99677.19;5130381;27;20043;-66
2021/12/30 01:30:36;;;;;;;3.55;1.30;;;;;;;18.96;48.27;99674.78;5130474;27;20051;-66
2021/12/30 01:33:02;;;;;;;1.98;1.10;;;;;;;18.96;48.33;99680.31;5130393;27;20414;-66
2021/12/30 01:35:28;;;;;;;1.38;0.90;;;;;;;18.96;48.23;99677.53;5130601;27;20047;-66
2021/12/30 01:38:00;;;;;;;2.03;1.30;;;;;;;19.00;48.24;99690.69;5130290;27;20088;-66
2021/12/30 01:40:26;;;;;;;2.13;1.10;;;;;;;18.98;48.20;99686.31;5129657;27;20047;-66
2021/12/30 01:42:51;;;;;;;1.38;1.00;;;;;;;18.98;48.33;99683.53;5130256;27;20048;-66
2021/12/30 01:45:17;;;;;;;1.98;1.10;;;;;;;19.02;48.19;99688.38;5130538;27;20050;-66
2021/12/30 01:47:50;;;;;;;1.13;0.80;;;;;;;19.05;48.18;99701.50;5130294;27;20050;-66
2021/12/30 01:50:16;;;;;;;1.77;1.00;;;;;;;19.01;48.20;99695.09;5130372;27;20047;-66
2021/12/30 01:52:42;;;;;;;1.75;1.00;;;;;;;19.00;48.21;99704.53;5130418;27;20061;-57
2021/12/30 01:55:09;;;;;;;1.17;0.85;;;;;;;18.98;48.38;99694.63;5130350;27;20047;-57
2021/12/30 01:57:35;;;;;;;1.52;0.88;;;;;;;18.98;48.42;99691.03;5130305;27;20050;-57
2021/12/30 02:00:01;;;;;;;1.52;0.95;;;;;;;18.98;48.27;99704.91;5130107;27;20047;-57
2021/12/30 02:02:26;;;;;;;1.73;0.98;;;;;;;18.99;48.17;99695.41;5132435;27;20124;-57
2021/12/30 02:04:52;;;;;;;1.00;0.80;;;;;;;18.99;48.33;99706.50;5132482;28;20511;-57
2021/12/30 02:07:18;;;;;;;1.35;0.85;;;;;;;19.01;48.27;99701.44;5133898;27;20118;-57
2021/12/30 02:09:44;;;;;;;1.48;0.90;;;;;;;18.96;48.37;99705.25;5133670;27;20147;-57
2021/12/30 02:12:09;;;;;;;1.30;0.80;;;;;;;18.96;48.33;99704.47;5132280;28;20039;-57
2021/12/30 02:14:36;;;;;;;1.52;1.00;;;;;;;18.98;48.30;99716.00;5133700;28;20037;-57
2021/12/30 02:17:04;;;;;;;1.73;1.00;;;;;;;18.98;48.36;99707.66;5133765;27;20039;-66
2021/12/30 02:19:30;;;;;;;2.10;1.13;;;;;;;18.95;48.48;99703.66;5133688;27;20046;-66
2021/12/30 02:21:56;;;;;;;1.77;1.10;;;;;;;18.95;48.34;99697.31;5133504;27;20054;-66
2021/12/30 02:24:22;;;;;;;1.42;0.90;;;;;;;18.97;48.37;99703.28;5133633;28;20036;-66
2021/12/30 02:26:47;;;;;;;1.55;1.00;;;;;;;18.93;48.47;99705.16;5133369;27;20039;-66
2021/12/30 02:29:12;;;;;;;1.70;1.02;;;;;;;18.96;48.38;99702.50;5133484;28;20050;-65
2021/12/30 02:31:40;;;;;;;1.63;1.13;;;;;;;18.94;48.46;99701.25;5133506;28;20047;-66
2021/12/30 02:34:05;;;;;;;1.73;0.98;;;;;;;18.96;48.32;99715.53;5133466;27;20437;-66
2021/12/30 02:36:34;;;;;;;1.50;0.90;;;;;;;18.96;48.45;99713.56;5133452;27;20072;-57
2021/12/30 02:39:06;;;;;;;1.52;1.00;;;;;;;18.94;48.42;99718.69;5133383;27;20346;-57
2021/12/30 02:41:34;;;;;;;1.85;1.15;;;;;;;18.95;48.36;99717.50;5133402;27;20118;-57
2021/12/30 02:44:01;;;;;;;1.70;1.00;;;;;;;18.97;48.32;99717.16;5133188;27;20046;-66
2021/12/30 02:46:30;;;;;;;1.70;1.10;;;;;;;18.96;48.28;99723.88;5133249;28;20418;-66
2021/12/30 02:48:57;;;;;;;1.38;0.90;;;;;;;18.97;48.40;99725.47;5133408;27;20039;-66
2021/12/30 02:51:23;;;;;;;1.50;0.98;;;;;;;18.96;48.26;99724.66;5133276;27;20055;-66
2021/12/30 02:53:49;;;;;;;1.40;1.00;;;;;;;18.96;48.26;99719.13;5133286;27;20051;-66
2021/12/30 02:56:15;;;;;;;2.30;1.13;;;;;;;18.99;48.21;99714.81;5133062;27;20046;-66
2021/12/30 02:58:41;;;;;;;1.65;1.00;;;;;;;18.99;48.02;99712.06;5132985;27;20047;-66
2021/12/30 03:01:15;;;;;;;1.95;1.00;;;;;;;19.00;48.20;99719.19;5132925;28;20046;-65
2021/12/30 03:03:40;;;;;;;1.50;1.00;;;;;;;19.00;48.22;99715.63;5133147;27;20102;-66
2021/12/30 03:06:09;;;;;;;1.70;1.00;;;;;;;19.01;48.21;99720.84;5132957;27;20140;-66
2021/12/30 03:08:35;;;;;;;1.40;1.00;;;;;;;18.99;48.17;99717.59;5132856;27;20043;-66
2021/12/30 03:11:01;;;;;;;1.60;1.00;;;;;;;19.01;48.21;99726.38;5132621;27;20050;-57
2021/12/30 03:13:32;;;;;;;1.30;0.88;;;;;;;19.01;48.22;99720.03;5132073;27;20047;-57
2021/12/30 03:16:06;;;;;;;1.58;0.90;;;;;;;19.00;48.30;99724.75;5132742;28;20058;-57
2021/12/30 03:18:34;;;;;;;1.85;0.90;;;;;;;19.00;48.34;99723.94;5132759;27;20039;-66
2021/12/30 03:21:00;;;;;;;2.00;1.10;;;;;;;18.97;48.41;99723.50;5132857;27;20049;-66
2021/12/30 03:23:26;;;;;;;1.38;0.90;;;;;;;19.02;48.34;99730.75;5132771;27;20039;-66
2021/12/30 03:25:52;;;;;;;1.58;0.80;;;;;;;19.03;48.31;99732.38;5131043;28;20051;-66
2021/12/30 03:28:18;;;;;;;1.20;0.88;;;;;;;19.01;48.31;99731.94;5132627;27;20035;-66
2021/12/30 03:30:44;;;;;;;1.75;0.98;;;;;;;19.01;48.41;99734.69;5132590;27;20047;-66
2021/12/30 03:33:09;;;;;;;1.80;1.15;;;;;;;18.99;48.34;99725.91;5132529;27;20059;-66
2021/12/30 03:35:35;;;;;;;2.17;1.10;;;;;;;19.01;48.46;99731.94;5132516;27;20099;-66
2021/12/30 03:38:01;;;;;;;1.70;1.08;;;;;;;18.96;48.41;99732.97;5132541;27;20069;-65
2021/12/30 03:40:26;;;;;;;1.40;1.00;;;;;;;19.01;48.38;99743.00;5132340;28;20054;-66
2021/12/30 03:42:52;;;;;;;1.42;0.90;;;;;;;19.00;48.47;99744.16;5132228;27;20415;-66
2021/12/30 03:45:17;;;;;;;2.17;1.05;;;;;;;19.00;48.29;99743.34;5132254;28;20047;-66
2021/12/30 03:47:47;;;;;;;1.63;1.02;;;;;;;18.98;48.52;99750.06;5132314;27;20126;-66
2021/12/30 03:50:20;;;;;;;1.42;0.93;;;;;;;19.01;48.32;99753.31;5132183;27;20103;-66
2021/12/30 03:52:49;;;;;;;1.90;1.05;;;;;;;18.98;48.43;99746.47;5132006;27;20636;-65
2021/12/30 03:55:16;;;;;;;2.10;1.10;;;;;;;18.97;48.41;99747.66;5132104;27;20054;-66
2021/12/30 03:57:41;;;;;;;1.40;0.90;;;;;;;18.97;48.42;99750.41;5132279;27;20047;-66
2021/12/30 04:00:08;;;;;;;1.52;1.10;;;;;;;19.01;48.38;99756.06;5132022;28;20107;-66
2021/12/30 04:02:33;;;;;;;1.85;1.00;;;;;;;19.00;48.42;99758.00;5131970;27;20078;-66
2021/12/30 04:04:58;;;;;;;1.52;1.05;;;;;;;18.98;48.30;99755.59;5131612;28;20074;-66
2021/12/30 04:07:24;;;;;;;1.60;1.00;;;;;;;18.99;48.44;99753.63;5131948;28;20039;-66
2021/12/30 04:09:49;;;;;;;1.95;1.10;;;;;;;18.98;48.42;99743.72;5131918;27;20048;-66
2021/12/30 04:12:15;;;;;;;1.95;1.00;;;;;;;18.96;48.51;99740.50;5131774;27;20062;-66
2021/12/30 04:14:40;;;;;;;1.70;1.10;;;;;;;18.98;48.49;99746.47;5131921;27;20035;-66
2021/12/30 04:17:06;;;;;;;1.58;0.93;;;;;;;18.96;48.52;99746.03;5131822;27;20039;-66
2021/12/30 04:19:31;;;;;;;1.80;1.10;;;;;;;18.98;48.42;99752.03;5131925;27;20051;-66
2021/12/30 04:21:58;;;;;;;1.42;1.00;;;;;;;18.98;48.43;99752.03;5131753;28;20054;-66
2021/12/30 04:24:24;;;;;;;1.58;1.02;;;;;;;19.00;48.41;99748.88;5130644;27;20068;-66
2021/12/30 04:26:50;;;;;;;1.42;1.00;;;;;;;18.98;48.39;99755.59;5131689;27;20043;-66
2021/12/30 04:29:17;;;;;;;1.98;1.10;;;;;;;18.98;48.38;99752.03;5131544;27;20039;-66
2021/12/30 04:31:43;;;;;;;1.55;1.00;;;;;;;18.97;48.53;99755.97;5131414;27;20125;-66
2021/12/30 04:34:09;;;;;;;1.83;1.10;;;;;;;18.98;48.43;99752.03;5131442;27;20111;-66
2021/12/30 04:36:35;;;;;;;1.80;1.10;;;;;;;18.97;48.42;99758.72;5131360;27;20031;-66
2021/12/30 04:39:01;;;;;;;1.60;1.00;;;;;;;18.99;48.38;99756.41;5131312;27;20043;-66
2021/12/30 04:41:26;;;;;;;1.60;0.95;;;;;;;18.96;48.33;99757.94;5131521;27;20040;-66
2021/12/30 04:43:52;;;;;;;1.60;1.10;;;;;;;18.97;48.43;99759.53;5131539;28;20039;-66
2021/12/30 04:46:17;;;;;;;2.38;1.10;;;;;;;18.97;48.44;99761.50;5131098;28;20080;-66
2021/12/30 04:48:42;;;;;;;1.50;0.90;;;;;;;18.95;48.58;99755.50;5131365;27;20047;-66
2021/12/30 04:51:08;;;;;;;1.80;1.02;;;;;;;18.95;48.43;99761.88;5131154;28;20380;-66
2021/12/30 04:53:33;;;;;;;1.55;0.80;;;;;;;18.94;48.49;99770.53;5130801;28;20097;-66
2021/12/30 04:55:59;;;;;;;1.70;1.17;;;;;;;18.96;48.50;99769.00;5131253;28;20110;-66
2021/12/30 04:58:24;;;;;;;1.90;1.02;;;;;;;18.95;48.51;99769.38;5131052;28;20495;-66
2021/12/30 05:00:50;;;;;;;1.60;1.00;;;;;;;18.97;48.42;99769.81;5131230;27;20171;-57
2021/12/30 05:03:16;;;;;;;1.90;1.30;;;;;;;18.94;48.52;99765.00;5131166;27;20071;-57
2021/12/30 05:05:45;;;;;;;2.00;1.20;;;;;;;18.94;48.45;99771.34;5131110;27;20502;-57
2021/12/30 05:08:11;;;;;;;2.10;1.23;;;;;;;18.96;48.53;99768.22;5131057;27;20043;-57
2021/12/30 05:10:37;;;;;;;2.75;1.15;;;;;;;18.95;48.63;99767.41;5131051;27;20502;-57
2021/12/30 05:13:04;;;;;;;2.25;1.10;;;;;;;18.97;48.49;99778.94;5130985;27;20139;-57
2021/12/30 05:15:29;;;;;;;1.60;1.00;;;;;;;18.96;48.52;99779.31;5131110;27;20036;-66
2021/12/30 05:17:55;;;;;;;1.80;1.10;;;;;;;18.94;48.44;99774.13;5130788;28;20042;-66
2021/12/30 05:20:21;;;;;;;1.30;0.80;;;;;;;18.95;48.50;99778.50;5130983;27;20057;-66
2021/12/30 05:22:47;;;;;;;1.50;1.00;;;;;;;18.98;48.43;99788.06;5130872;27;20093;-66
2021/12/30 05:25:16;;;;;;;1.77;1.00;;;;;;;18.98;48.41;99783.31;5130713;27;20467;-57
2021/12/30 05:27:42;;;;;;;2.40;1.10;;;;;;;18.96;48.52;99773.75;5130716;27;20521;-57
2021/12/30 05:30:11;;;;;;;1.83;1.02;;;;;;;18.95;48.53;99772.16;5130519;27;20043;-57
2021/12/30 05:32:36;;;;;;;2.20;1.20;;;;;;;18.94;48.52;99773.31;5130502;27;20396;-57
2021/12/30 05:35:04;;;;;;;1.70;1.10;;;;;;;18.93;48.48;99774.44;5109816;28;20548;-57
2021/12/30 05:37:30;;;;;;;1.10;0.80;;;;;;;18.95;48.57;99777.69;5110196;28;20048;-57
2021/12/30 05:39:55;;;;;;;2.30;1.17;;;;;;;18.94;48.44;99787.97;5110365;28;20040;-57
2021/12/30 05:42:22;;;;;;;1.52;0.90;;;;;;;18.94;48.52;99787.16;5110034;28;20071;-57
2021/12/30 05:44:50;;;;;;;2.30;1.17;;;;;;;19.12;48.01;99776.56;5109945;28;20043;-57
2021/12/30 05:47:16;;;;;;;1.67;1.00;;;;;;;20.53;45.26;99784.06;5109862;28;20050;-57
2021/12/30 05:49:41;;;;;;;1.25;0.80;;;;;;;20.50;45.16;99787.59;5109702;28;20047;-57
2021/12/30 05:52:07;;;;;;;2.08;1.23;;;;;;;20.26;45.40;99791.38;5109850;28;20096;-57
2021/12/30 05:54:32;;;;;;;1.33;0.90;;;;;;;20.02;46.07;99795.19;5110009;28;20036;-57
2021/12/30 05:56:57;;;;;;;1.85;1.00;;;;;;;19.81;46.43;99797.44;5109843;28;20054;-57
2021/12/30 05:59:23;;;;;;;2.28;1.30;;;;;;;19.66;46.88;99801.81;5109952;28;20071;-57
2021/12/30 06:01:48;;;;;;;1.70;1.10;;;;;;;19.52;47.18;99802.22;5109837;28;20122;-57
2021/12/30 06:04:14;;;;;;;1.60;1.00;;;;;;;19.42;47.32;99804.69;5109709;28;20047;-57
2021/12/30 06:06:39;;;;;;;1.58;1.02;;;;;;;19.39;47.31;99814.56;5109715;28;20051;-57
2021/12/30 06:09:05;;;;;;;1.95;1.10;;;;;;;19.30;47.55;99813.13;5109734;28;20051;-57
2021/12/30 06:11:30;;;;;;;1.83;0.90;;;;;;;19.26;47.82;99815.78;5109665;28;20051;-58
2021/12/30 06:13:55;;;;;;;1.77;1.10;;;;;;;19.23;47.85;99822.84;5109652;28;20394;-57
2021/12/30 06:16:21;;;;;;;2.00;1.20;;;;;;;19.20;47.91;99823.53;5109675;28;20046;-66
2021/12/30 06:18:46;;;;;;;1.92;1.17;;;;;;;19.17;47.95;99823.44;5109428;28;20089;-66
2021/12/30 06:21:11;;;;;;;1.25;0.90;;;;;;;19.13;48.07;99822.53;5109743;28;20106;-66
2021/12/30 06:23:37;;;;;;;1.77;1.20;;;;;;;19.14;48.08;99822.16;5109740;28;20040;-66
2021/12/30 06:26:02;;;;;;;1.70;1.00;;;;;;;19.12;48.03;99818.94;5109346;28;20088;-66
2021/12/30 06:28:28;;;;;;;1.80;1.00;;;;;;;19.12;48.11;99816.19;5109448;28;20509;-65
2021/12/30 06:30:53;;;;;;;1.60;1.00;;;;;;;19.09;48.11;99825.22;5109374;28;20047;-66
2021/12/30 06:33:19;;;;;;;1.75;1.10;;;;;;;19.07;48.20;99824.75;5109277;28;20518;-57
2021/12/30 06:35:45;;;;;;;1.98;1.10;;;;;;;19.10;48.19;99828.78;5109289;28;20040;-57
2021/12/30 06:38:11;;;;;;;1.75;1.00;;;;;;;19.07;48.30;99824.75;5109157;28;20096;-66
2021/12/30 06:40:37;;;;;;;1.67;1.00;;;;;;;19.05;48.21;99831.81;5109210;28;20063;-65
2021/12/30 06:43:03;;;;;;;1.77;1.23;;;;;;;19.05;48.30;99837.34;5109010;28;20067;-66
2021/12/30 06:45:28;;;;;;;1.70;1.00;;;;;;;19.05;48.37;99838.16;5109147;28;20050;-66
2021/12/30 06:47:54;;;;;;;2.10;1.20;;;;;;;19.03;48.46;99840.50;5110594;28;20415;-65
2021/12/30 06:50:23;;;;;;;1.67;1.20;;;;;;;19.05;48.42;99845.69;5112503;28;20051;-66
2021/12/30 06:52:48;;;;;;;2.42;1.30;;;;;;;19.05;48.47;99852.03;5112338;28;20050;-66
2021/12/30 06:55:15;;;;;;;2.05;1.10;;;;;;;19.04;48.42;99841.28;5112412;28;20122;-66
2021/12/30 06:57:41;;;;;;;1.77;1.10;;;;;;;19.03;48.48;99846.03;5112488;28;20048;-66
2021/12/30 07:00:08;;;;;;;1.73;1.15;;;;;;;19.04;48.56;99850.41;5112374;28;20415;-66
2021/12/30 07:02:35;;;;;;;1.90;1.20;;;;;;;19.02;48.64;99852.75;5112271;28;20065;-66
2021/12/30 07:05:01;;;;;;;1.90;1.20;;;;;;;19.01;48.55;99853.09;5112577;28;20047;-66
2021/12/30 07:07:26;;;;;;;2.15;1.30;;;;;;;19.04;48.64;99860.69;5112362;28;20040;-66
2021/12/30 07:09:52;;;;;;;2.65;1.30;;;;;;;19.03;48.54;99861.88;5112226;28;20048;-66
2021/12/30 07:12:17;;;;;;;2.33;1.48;;;;;;;19.01;48.70;99870.53;5112180;28;20082;-66
2021/12/30 07:14:43;;;;;;;1.90;1.20;;;;;;;18.99;48.80;99856.19;5112330;28;20047;-66
2021/12/30 07:17:09;;;;;;;2.38;1.58;;;;;;;19.03;48.65;99859.91;5112131;28;20407;-66
2021/12/30 07:19:34;;;;;;;2.38;1.48;;;;;;;18.99;48.71;99858.97;5112168;28;20040;-66
2021/12/30 07:22:00;;;;;;;2.50;1.40;;;;;;;18.98;48.68;99860.94;5112143;28;20053;-66
2021/12/30 07:24:25;;;;;;;2.50;1.60;;;;;;;19.01;48.69;99858.66;5112100;28;20039;-66
2021/12/30 07:26:51;;;;;;;2.60;1.50;;;;;;;18.98;48.58;99854.59;5111812;28;20046;-66
2021/12/30 07:29:18;;;;;;;1.98;1.30;;;;;;;19.02;48.69;99863.03;5112191;28;20072;-66
2021/12/30 07:31:43;;;;;;;2.42;1.63;;;;;;;19.01;48.71;99865.00;5112174;28;20423;-66
2021/12/30 07:34:09;;;;;;;2.55;1.50;;;;;;;19.01;48.77;99870.53;5112013;28;20503;-66
2021/12/30 07:36:34;;;;;;;5.05;1.52;;;;;;;19.00;48.85;99868.09;5111918;28;20058;-66
2021/12/30 07:39:00;;;;;;;2.08;1.45;;;;;;;19.00;48.72;99877.22;5111782;28;20534;-65
2021/12/30 07:41:25;;;;;;;2.20;1.30;;;;;;;19.02;48.76;99882.44;5111644;28;20051;-66
2021/12/30 07:43:51;;;;;;;3.17;1.50;;;;;;;18.99;48.84;99875.59;5111928;28;20040;-66
2021/12/30 07:46:16;;;;;;;2.90;1.50;;;;;;;18.98;48.73;99882.31;5107562;28;20043;-66
2021/12/30 07:48:42;;;;;;;2.35;1.55;;;;;;;18.98;48.83;99880.34;5111762;28;20400;-66
2021/12/30 07:51:07;;;;;;;3.55;1.63;;;;;;;18.99;48.94;99886.69;5111642;28;20039;-66
2021/12/30 07:53:33;;;;;;;2.40;1.35;;;;;;;18.96;48.90;99888.22;5111595;28;20044;-66
2021/12/30 07:56:01;;;;;;;1.95;1.30;;;;;;;18.96;48.96;99884.63;5111558;28;20036;-66
2021/12/30 07:58:27;;;;;;;2.80;1.60;;;;;;;18.96;49.03;99890.19;5111454;28;20138;-66
2021/12/30 08:00:52;;;;;;;3.13;1.80;;;;;;;18.97;48.96;99889.00;5111566;28;20562;-66
2021/12/30 08:03:18;;;;;;;2.13;1.48;;;;;;;18.96;49.06;99887.41;5111510;28;20058;-66
2021/12/30 08:05:45;;;;;;;2.85;1.83;;;;;;;18.98;48.95;99885.88;5111324;28;20059;-66
2021/12/30 08:08:10;;;;;;;2.22;1.40;;;;;;;18.99;48.95;99883.91;5111432;28;20163;-66
2021/12/30 08:10:36;;;;;;;2.67;1.73;;;;;;;18.97;48.92;99887.06;5111063;28;20127;-66
2021/12/30 08:13:02;;;;;;;3.05;1.70;;;;;;;18.98;49.04;99885.88;5111319;28;20074;-66
2021/12/30 08:15:28;;;;;;;2.17;1.40;;;;;;;19.01;49.00;99892.72;5111175;28;20047;-66
2021/12/30 08:17:54;;;;;;;2.50;1.60;;;;;;;18.98;48.92;99891.44;5111079;28;20047;-66
2021/12/30 08:20:22;;;;;;;2.10;1.50;;;;;;;19.01;48.99;99900.22;5111117;28;20050;-66
2021/12/30 08:22:48;;;;;;;2.70;1.70;;;;;;;18.98;48.97;99891.44;5111110;28;20085;-66
2021/12/30 08:25:14;;;;;;;2.38;1.60;;;;;;;19.00;49.07;99896.63;5110954;28;20040;-66
2021/12/30 08:27:41;;;;;;;2.80;1.80;;;;;;;19.01;49.10;99903.81;5111082;28;20488;-66
2021/12/30 08:30:09;;;;;;;2.28;1.50;;;;;;;19.00;49.04;99904.94;5110683;28;20126;-66
2021/12/30 08:32:35;;;;;;;3.92;1.50;;;;;;;18.99;49.31;99911.63;5110152;28;20408;-66
2021/12/30 08:35:00;;;;;;;3.00;1.70;;;;;;;19.02;49.13;99910.16;5110954;28;20495;-65
2021/12/30 08:37:26;;;;;;;2.80;1.63;;;;;;;19.02;49.19;99907.38;5110823;28;20051;-66
2021/12/30 08:39:51;;;;;;;2.75;1.60;;;;;;;19.02;49.21;99912.94;5110784;28;20036;-66
2021/12/30 08:42:28;;;;;;;2.70;1.65;;;;;;;19.00;49.14;99912.44;5110955;28;20451;-66
2021/12/30 08:44:56;;;;;;;3.15;2.00;;;;;;;19.02;48.97;99913.72;5110763;28;20044;-57
2021/12/30 08:47:22;;;;;;;3.17;1.88;;;;;;;19.03;49.13;99911.75;5110737;28;20035;-66
2021/12/30 08:49:48;;;;;;;3.42;2.17;;;;;;;19.02;49.21;99919.28;5110856;28;20054;-66
2021/12/30 08:52:16;;;;;;;2.95;2.03;;;;;;;19.03;49.25;99920.09;5110741;28;20048;-66
2021/12/30 08:54:42;;;;;;;2.63;1.77;;;;;;;19.02;49.24;99922.06;5110527;28;20188;-65
2021/12/30 08:57:08;;;;;;;3.33;2.05;;;;;;;19.03;49.23;99918.13;5110685;28;20040;-66
2021/12/30 08:59:35;;;;;;;3.28;2.20;;;;;;;19.04;49.23;99928.03;5110583;28;20474;-66
2021/12/30 09:02:02;;;;;;;2.85;1.80;;;;;;;19.04;49.30;99922.50;5110466;28;20526;-57
2021/12/30 09:04:27;;;;;;;2.70;1.83;;;;;;;19.02;49.42;99916.50;5110680;28;20535;-57
2021/12/30 09:06:53;;;;;;;3.22;1.92;;;;;;;19.02;49.50;99930.38;5110295;28;20055;-57
2021/12/30 09:09:19;;;;;;;3.22;1.70;;;;;;;19.04;49.45;99932.78;5110450;28;20130;-57
2021/12/30 09:11:44;;;;;;;3.00;2.10;;;;;;;19.03;49.52;99929.19;5109656;28;20129;-57
2021/12/30 09:14:13;;;;;;;3.13;1.90;;;;;;;19.04;49.44;99933.59;5110310;28;20051;-57
2021/12/30 09:16:39;;;;;;;2.40;1.65;;;;;;;19.03;49.51;99945.03;5110498;28;20047;-57
2021/12/30 09:19:05;;;;;;;2.50;1.75;;;;;;;19.02;49.59;99947.00;5110496;28;20043;-57
2021/12/30 09:21:30;;;;;;;3.03;1.90;;;;;;;19.04;49.67;99952.19;5110394;28;20083;-66
2021/12/30 09:23:56;;;;;;;2.42;1.50;;;;;;;19.03;49.70;99948.59;5110133;28;20403;-66
2021/12/30 09:26:21;;;;;;;3.22;2.00;;;;;;;19.03;49.65;99956.13;5110114;28;20054;-66
2021/12/30 09:28:46;;;;;;;2.80;1.80;;;;;;;19.01;49.67;99937.06;5110164;28;20096;-66
2021/12/30 09:31:12;;;;;;;2.60;1.80;;;;;;;19.02;49.66;99948.97;5110238;28;20040;-66
2021/12/30 09:33:37;;;;;;;2.50;1.80;;;;;;;18.99;49.73;99953.22;5110007;28;20126;-66
2021/12/30 09:36:04;;;;;;;3.05;1.90;;;;;;;19.02;49.60;99952.53;5110178;28;20040;-66
2021/12/30 09:38:30;;;;;;;3.20;2.30;;;;;;;19.01;49.80;99956.47;5109949;28;20127;-66
2021/12/30 09:40:55;;;;;;;2.80;1.88;;;;;;;18.99;49.59;99961.53;5109996;28;20122;-66
2021/12/30 09:43:21;;;;;;;3.63;2.00;;;;;;;18.97;49.84;99967.44;5109964;28;20054;-66
2021/12/30 09:45:47;;;;;;;2.88;2.00;;;;;;;19.01;49.80;99967.56;5109855;28;20052;-66
2021/12/30 09:48:14;;;;;;;3.00;1.98;;;;;;;19.03;49.96;99969.97;5109847;28;20465;-65
2021/12/30 09:50:43;;;;;;;2.88;1.80;;;;;;;19.01;49.82;99980.63;5109953;28;20040;-66
2021/12/30 09:53:10;;;;;;;3.35;2.10;;;;;;;19.04;49.83;99974.38;5091773;28;20044;-57
2021/12/30 09:55:37;;;;;;;2.95;1.88;;;;;;;19.04;49.86;99974.38;5109964;28;20127;-66
2021/12/30 09:58:03;;;;;;;3.33;2.15;;;;;;;19.05;49.87;99981.53;5109632;28;20043;-66
2021/12/30 10:00:29;;;;;;;2.85;1.90;;;;;;;19.06;49.88;99977.59;5109930;28;20058;-66
2021/12/30 10:02:55;;;;;;;2.53;1.80;;;;;;;19.03;49.78;99979.09;5109540;28;20047;-66
2021/12/30 10:05:24;;;;;;;3.15;2.00;;;;;;;19.07;49.66;99985.56;5109462;28;20036;-66
2021/12/30 10:08:06;;;;;;;2.83;2.03;;;;;;;19.02;49.93;99985.81;5109570;28;20389;-66
2021/12/30 10:10:38;;;;;;;3.33;2.00;;;;;;;19.05;49.87;99984.28;5109596;28;20529;-66
2021/12/30 10:13:30;;;;;;;3.25;2.03;;;;;;;19.03;50.14;99992.97;5109676;28;20039;-66
2021/12/30 10:16:04;;;;;;;3.20;2.20;;;;;;;19.05;49.93;99996.19;5109721;28;20082;-65
2021/12/30 10:18:45;;;;;;;3.05;2.00;;;;;;;19.03;50.03;99992.97;5109508;28;20079;-66
2021/12/30 10:21:39;;;;;;;3.10;2.10;;;;;;;19.03;49.97;99997.72;5109475;28;20462;-57
2021/12/30 10:24:07;;;;;;;3.03;1.83;;;;;;;19.02;50.07;100004.41;5112733;28;20048;-66
2021/12/30 10:26:57;;;;;;;3.33;2.25;;;;;;;19.04;49.94;99996.53;5112971;28;20048;-66
2021/12/30 10:29:25;;;;;;;3.55;2.00;;;;;;;19.01;50.09;99997.25;5112983;28;20043;-66
2021/12/30 10:31:53;;;;;;;3.58;2.20;;;;;;;19.03;50.08;100001.28;5112965;28;20043;-66
2021/12/30 10:34:19;;;;;;;2.70;1.90;;;;;;;19.04;50.00;100000.13;5112813;28;20673;-57
2021/12/30 10:36:48;;;;;;;4.22;1.85;;;;;;;19.05;50.01;100003.69;5112896;28;20552;-57
2021/12/30 10:39:34;;;;;;;4.15;2.50;;;;;;;19.03;50.25;100004.06;5112789;28;20538;-57
2021/12/30 10:42:05;;;;;;;3.42;2.10;;;;;;;19.04;50.08;99999.31;5112723;28;20046;-57
2021/12/30 10:44:53;;;;;;;3.30;2.17;;;;;;;19.04;50.15;99996.53;5112686;28;20093;-57
2021/12/30 10:47:20;;;;;;;2.92;1.90;;;;;;;19.06;50.13;100006.13;5112994;28;20047;-57
2021/12/30 10:49:57;;;;;;;3.00;1.95;;;;;;;19.06;50.10;99997.00;5112782;28;20036;-57
2021/12/30 10:52:23;;;;;;;3.10;2.13;;;;;;;19.04;50.12;100005.66;5112654;28;20039;-57
2021/12/30 10:54:48;;;;;;;2.75;1.90;;;;;;;19.04;50.12;100002.91;5112624;28;20467;-57
2021/12/30 10:57:13;;;;;;;3.15;2.10;;;;;;;19.05;50.07;99995.38;5112659;28;20048;-57
2021/12/30 10:59:42;;;;;;;3.13;2.15;;;;;;;19.04;50.23;99999.31;5112430;28;20085;-57
2021/12/30 11:02:12;;;;;;;3.42;2.28;;;;;;;19.07;50.13;99998.59;5112452;28;20075;-57
2021/12/30 11:04:54;;;;;;;3.17;2.05;;;;;;;19.06;50.09;99999.78;5112290;28;20402;-57
2021/12/30 11:07:24;;;;;;;3.53;2.08;;;;;;;19.06;50.09;99997.00;5110378;28;20070;-57
2021/12/30 11:09:55;;;;;;;2.97;1.92;;;;;;;19.12;49.63;99996.41;5112150;28;20044;-57
2021/12/30 11:12:28;;;;;;;3.10;1.90;;;;;;;20.37;47.22;99993.63;5112048;28;20047;-57
2021/12/30 11:14:55;;;;;;;3.92;2.25;;;;;;;20.42;46.95;99993.34;5112134;28;20048;-57
2021/12/30 11:17:29;;;;;;;2.97;2.00;;;;;;;20.22;47.29;99990.47;5112172;28;20096;-57
2021/12/30 11:19:59;;;;;;;3.38;1.90;;;;;;;20.10;47.62;99993.31;5112295;28;20048;-57
2021/12/30 11:22:28;;;;;;;3.13;2.00;;;;;;;19.93;48.06;99988.91;5112326;28;20046;-57
2021/12/30 11:25:00;;;;;;;3.30;1.95;;;;;;;19.75;48.57;99996.72;5112176;28;20551;-57
2021/12/30 11:27:28;;;;;;;2.60;1.67;;;;;;;19.63;48.79;99993.19;5111952;28;20055;-57
2021/12/30 11:29:59;;;;;;;2.60;1.77;;;;;;;19.51;49.14;99994.84;5112175;28;20059;-57
2021/12/30 11:32:28;;;;;;;3.72;2.17;;;;;;;19.47;49.17;99993.09;5111923;28;20047;-66
2021/12/30 11:34:55;;;;;;;3.70;2.08;;;;;;;19.41;49.35;99997.28;5111292;28;20052;-66